createdAt,value
2023-01-08T00:01:18.132Z,9.63
2023-01-08T00:03:46.036Z,9.85
2023-01-08T00:06:17.680Z,10.00
2023-01-08T00:08:45.663Z,9.23
2023-01-08T00:11:13.450Z,8.90
2023-01-08T00:13:41.074Z,9.27
2023-01-08T00:16:13.789Z,9.00
2023-01-08T00:18:41.201Z,8.52
2023-01-08T00:21:08.532Z,9.23
2023-01-08T00:23:36.961Z,8.45
2023-01-08T00:26:10.235Z,8.95
2023-01-08T00:28:38.497Z,9.30
2023-01-08T00:31:08.229Z,9.55
2023-01-08T00:33:36.154Z,9.43
2023-01-08T00:36:12.573Z,9.55
2023-01-08T00:38:39.837Z,9.93
2023-01-08T00:41:06.846Z,9.40
2023-01-08T00:43:34.272Z,9.68
2023-01-08T00:46:01.356Z,10.32
2023-01-08T00:48:28.443Z,10.25
2023-01-08T00:50:55.603Z,9.60
2023-01-08T00:53:23.212Z,9.73
2023-01-08T00:55:50.256Z,9.75
2023-01-08T00:58:17.318Z,9.15
2023-01-08T01:00:44.241Z,8.95
2023-01-08T01:03:11.104Z,9.45
2023-01-08T01:05:38.045Z,8.70
2023-01-08T01:08:05.112Z,9.88
2023-01-08T01:10:32.041Z,9.52
2023-01-08T01:12:58.931Z,9.10
2023-01-08T01:15:25.989Z,8.75
2023-01-08T01:17:52.978Z,9.18
2023-01-08T01:20:20.030Z,8.55
2023-01-08T01:22:47.022Z,8.32
2023-01-08T01:25:13.955Z,8.05
2023-01-08T01:27:40.910Z,7.63
2023-01-08T01:30:09.128Z,7.40
2023-01-08T01:32:36.512Z,7.45
2023-01-08T01:35:03.789Z,8.05
2023-01-08T01:37:30.750Z,7.57
2023-01-08T01:39:57.972Z,7.15
2023-01-08T01:42:39.979Z,7.65
2023-01-08T01:45:27.803Z,8.15
2023-01-08T01:47:59.673Z,7.85
2023-01-08T01:50:36.185Z,8.18
2023-01-08T01:53:15.669Z,8.48
2023-01-08T01:55:44.699Z,7.82
2023-01-08T01:58:23.128Z,8.25
2023-01-08T02:00:52.467Z,8.45
2023-01-08T02:03:26.803Z,8.55
2023-01-08T02:06:09.303Z,7.75
2023-01-08T02:09:17.661Z,8.70
2023-01-08T02:12:09.538Z,8.75
2023-01-08T02:14:59.313Z,7.93
2023-01-08T02:17:55.161Z,8.50
2023-01-08T02:20:43.861Z,8.02
2023-01-08T02:23:27.140Z,8.60
2023-01-08T02:26:05.585Z,8.45
2023-01-08T02:28:47.319Z,8.70
2023-01-08T02:31:16.491Z,8.52
2023-01-08T02:33:43.479Z,8.60
2023-01-08T02:36:16.275Z,8.95
2023-01-08T02:39:16.765Z,8.20
2023-01-08T02:42:21.840Z,9.10
2023-01-08T02:45:07.575Z,9.13
2023-01-08T02:47:49.890Z,9.30
2023-01-08T02:50:31.974Z,10.02
2023-01-08T02:53:13.691Z,10.13
2023-01-08T02:55:44.718Z,10.48
2023-01-08T02:58:13.064Z,9.88
2023-01-08T03:00:43.744Z,10.25
2023-01-08T03:03:22.641Z,10.48
2023-01-08T03:05:57.673Z,10.80
2023-01-08T03:08:26.466Z,10.63
2023-01-08T03:11:06.676Z,11.60
2023-01-08T03:13:47.861Z,10.75
2023-01-08T03:16:28.209Z,10.82
2023-01-08T03:19:06.778Z,11.18
2023-01-08T03:21:37.336Z,10.95
2023-01-08T03:24:06.547Z,11.45
2023-01-08T03:26:37.663Z,10.85
2023-01-08T03:29:09.432Z,10.75
2023-01-08T03:31:36.958Z,11.02
2023-01-08T03:34:05.498Z,11.95
2023-01-08T03:36:35.871Z,11.88
2023-01-08T03:39:20.852Z,11.48
2023-01-08T03:41:49.569Z,12.65
2023-01-08T03:44:16.717Z,11.45
2023-01-08T03:46:51.081Z,12.13
2023-01-08T03:49:20.302Z,12.47
2023-01-08T03:51:48.125Z,13.00
2023-01-08T03:54:19.590Z,12.65
2023-01-08T03:56:47.167Z,13.05
2023-01-08T03:59:15.290Z,12.73
2023-01-08T04:01:43.301Z,13.80
2023-01-08T04:04:12.282Z,13.60
2023-01-08T04:06:39.277Z,12.90
2023-01-08T04:09:06.731Z,13.35
2023-01-08T04:11:33.811Z,13.00
2023-01-08T04:14:01.005Z,13.02
2023-01-08T04:16:28.011Z,11.85
2023-01-08T04:18:54.990Z,12.90
2023-01-08T04:21:21.870Z,11.90
2023-01-08T04:23:48.795Z,11.50
2023-01-08T04:26:15.705Z,11.48
2023-01-08T04:28:42.634Z,11.80
2023-01-08T04:31:10.604Z,11.05
2023-01-08T04:33:37.800Z,10.77
2023-01-08T04:36:06.116Z,11.60
2023-01-08T04:38:33.019Z,10.95
2023-01-08T04:41:02.216Z,10.90
2023-01-08T04:43:30.971Z,11.48
2023-01-08T04:46:00.012Z,11.50
2023-01-08T04:48:28.628Z,11.05
2023-01-08T04:50:58.745Z,12.20
2023-01-08T04:53:26.124Z,11.48
2023-01-08T04:55:53.018Z,11.23
2023-01-08T04:58:20.254Z,12.40
2023-01-08T05:00:47.374Z,11.82
2023-01-08T05:03:14.896Z,11.32
2023-01-08T05:05:41.923Z,12.35
2023-01-08T05:08:08.859Z,11.60
2023-01-08T05:10:35.731Z,12.05
2023-01-08T05:13:02.682Z,12.48
2023-01-08T05:15:29.753Z,12.45
2023-01-08T05:18:05.709Z,12.70
2023-01-08T05:20:33.835Z,12.48
2023-01-08T05:23:01.581Z,12.85
2023-01-08T05:25:28.473Z,12.57
2023-01-08T05:27:55.391Z,12.80
2023-01-08T05:30:22.354Z,13.10
2023-01-08T05:32:49.278Z,13.68
2023-01-08T05:35:16.285Z,13.10
2023-01-08T05:37:43.126Z,13.18
2023-01-08T05:40:11.021Z,13.75
2023-01-08T05:42:38.309Z,14.38
2023-01-08T05:45:07.728Z,13.73
2023-01-08T05:47:35.700Z,13.77
2023-01-08T05:50:02.874Z,13.65
2023-01-08T05:52:30.089Z,14.05
2023-01-08T05:54:57.067Z,14.45
2023-01-08T05:57:24.011Z,14.30
2023-01-08T05:59:50.919Z,15.20
2023-01-08T06:02:17.798Z,15.43
2023-01-08T06:04:44.772Z,14.90
2023-01-08T06:07:11.883Z,15.73
2023-01-08T06:09:38.776Z,13.88
2023-01-08T06:12:06.077Z,14.93
2023-01-08T06:14:33.037Z,15.88
2023-01-08T06:16:59.959Z,14.95
2023-01-08T06:19:26.890Z,15.45
2023-01-08T06:21:53.810Z,15.27
2023-01-08T06:24:20.667Z,14.52
2023-01-08T06:26:47.683Z,15.52
2023-01-08T06:29:14.562Z,15.10
2023-01-08T06:31:41.805Z,15.57
2023-01-08T06:34:08.772Z,15.50
2023-01-08T06:36:35.655Z,15.82
2023-01-08T06:39:02.744Z,15.45
2023-01-08T06:41:29.688Z,15.65
2023-01-08T06:43:56.547Z,15.52
2023-01-08T06:46:23.629Z,15.48
2023-01-08T06:48:50.596Z,15.75
2023-01-08T06:51:17.585Z,15.98
2023-01-08T06:53:44.569Z,14.80
2023-01-08T06:56:11.417Z,16.30
2023-01-08T06:58:39.611Z,14.60
2023-01-08T07:01:06.901Z,15.48
2023-01-08T07:03:33.913Z,15.82
2023-01-08T07:06:03.322Z,15.05
2023-01-08T07:08:30.224Z,14.43
2023-01-08T07:10:57.170Z,14.82
2023-01-08T07:13:24.910Z,14.02
2023-01-08T07:15:51.893Z,14.02
2023-01-08T07:18:18.894Z,14.27
2023-01-08T07:20:45.814Z,13.70
2023-01-08T07:23:12.831Z,15.00
2023-01-08T07:25:40.327Z,14.27
2023-01-08T07:28:12.721Z,13.85
2023-01-08T07:30:39.844Z,14.43
2023-01-08T07:33:06.803Z,14.13
2023-01-08T07:35:35.408Z,14.00
2023-01-08T07:38:02.361Z,13.43
2023-01-08T07:40:29.277Z,14.40
2023-01-08T07:43:04.581Z,14.15
2023-01-08T07:45:32.589Z,13.45
2023-01-08T07:48:00.611Z,13.90
2023-01-08T07:50:28.229Z,12.32
2023-01-08T07:53:00.274Z,14.13
2023-01-08T07:59:07.364Z,12.88
2023-01-08T08:01:34.412Z,12.70
2023-01-08T08:04:01.394Z,12.60
2023-01-08T08:06:28.274Z,12.50
2023-01-08T08:08:59.967Z,12.65
2023-01-08T08:11:26.973Z,12.02
2023-01-08T08:13:56.595Z,11.85
2023-01-08T08:16:23.667Z,11.80
2023-01-08T08:18:50.784Z,10.82
2023-01-08T08:21:17.682Z,10.95
2023-01-08T08:23:44.647Z,12.15
2023-01-08T08:26:12.041Z,11.02
2023-01-08T08:28:39.003Z,11.32
2023-01-08T08:31:06.065Z,10.93
2023-01-08T08:33:33.039Z,10.80
2023-01-08T08:36:00.124Z,11.18
2023-01-08T08:38:27.247Z,11.20
2023-01-08T08:40:54.280Z,10.93
2023-01-08T08:43:21.349Z,11.38
2023-01-08T08:45:48.298Z,9.40
2023-01-08T08:48:16.840Z,10.45
2023-01-08T08:50:43.852Z,10.13
2023-01-08T08:53:11.096Z,9.77
2023-01-08T08:55:38.003Z,10.98
2023-01-08T08:58:12.616Z,9.75
2023-01-08T09:00:42.945Z,9.57
2023-01-08T09:03:15.545Z,10.25
2023-01-08T09:05:43.655Z,9.93
2023-01-08T09:08:12.601Z,9.52
2023-01-08T09:10:42.243Z,9.57
2023-01-08T09:13:10.213Z,9.00
2023-01-08T09:15:38.472Z,9.57
2023-01-08T09:18:05.844Z,9.48
2023-01-08T09:20:33.061Z,10.00
2023-01-08T09:23:01.464Z,8.95
2023-01-08T09:25:28.775Z,9.02
2023-01-08T09:28:08.482Z,9.05
2023-01-08T09:30:36.151Z,8.88
2023-01-08T09:33:04.404Z,8.07
2023-01-08T09:35:34.571Z,9.32
2023-01-08T09:38:02.288Z,9.45
2023-01-08T09:40:37.833Z,8.57
2023-01-08T09:43:11.348Z,9.02
2023-01-08T09:45:40.743Z,8.40
2023-01-08T09:48:17.032Z,9.40
2023-01-08T09:50:44.408Z,8.85
2023-01-08T09:53:18.298Z,9.75
2023-01-08T09:56:08.728Z,9.40
2023-01-08T09:58:54.244Z,9.55
2023-01-08T10:01:30.758Z,8.25
2023-01-08T10:04:20.578Z,10.25
2023-01-08T10:06:55.891Z,8.85
2023-01-08T10:09:32.622Z,9.25
2023-01-08T10:12:05.968Z,8.82
2023-01-08T10:14:40.425Z,8.50
2023-01-08T10:17:33.744Z,8.90
2023-01-08T10:20:00.704Z,9.10
2023-01-08T10:22:33.976Z,9.18
2023-01-08T10:25:12.381Z,9.18
2023-01-08T10:27:59.936Z,8.88
2023-01-08T10:30:37.417Z,9.90
2023-01-08T10:33:11.381Z,8.57
2023-01-08T10:35:41.710Z,9.23
2023-01-08T10:38:34.280Z,7.75
2023-01-08T10:41:09.877Z,8.15
2023-01-08T10:44:06.334Z,8.30
2023-01-08T10:46:47.597Z,7.80
2023-01-08T10:49:33.137Z,8.55
2023-01-08T10:54:36.559Z,9.23
2023-01-08T10:57:22.558Z,7.85
2023-01-08T10:59:50.164Z,8.32
2023-01-08T11:02:39.711Z,7.78
2023-01-08T11:05:11.277Z,8.20
2023-01-08T11:07:40.399Z,6.63
2023-01-08T11:10:22.886Z,7.35
2023-01-08T11:12:57.315Z,6.72
2023-01-08T11:15:40.456Z,6.38
2023-01-08T11:18:19.626Z,7.38
2023-01-08T11:20:48.631Z,6.80
2023-01-08T11:23:25.485Z,7.93
2023-01-08T11:26:20.639Z,6.55
2023-01-08T11:29:15.959Z,6.60
2023-01-08T11:32:26.132Z,6.32
2023-01-08T11:35:26.014Z,6.65
2023-01-08T11:38:00.901Z,6.95
2023-01-08T11:40:44.657Z,6.72
2023-01-08T11:43:42.451Z,6.05
2023-01-08T11:46:44.961Z,6.50
2023-01-08T11:49:35.359Z,6.95
2023-01-08T11:52:29.157Z,7.30
2023-01-08T11:55:34.793Z,7.53
2023-01-08T11:58:35.242Z,7.40
2023-01-08T12:01:29.175Z,8.13
2023-01-08T12:04:45.925Z,7.20
2023-01-08T12:09:58.857Z,7.45
2023-01-08T12:12:48.604Z,8.10
2023-01-08T12:18:58.870Z,9.07
2023-01-08T12:22:03.770Z,8.18
2023-01-08T12:25:10.243Z,7.93
2023-01-08T12:28:20.559Z,9.10
2023-01-08T12:31:30.415Z,8.05
2023-01-08T12:34:10.586Z,8.82
2023-01-08T12:36:46.020Z,7.95
2023-01-08T12:39:33.890Z,9.05
2023-01-08T12:42:13.541Z,8.57
2023-01-08T12:44:40.950Z,9.40
2023-01-08T12:47:18.574Z,9.95
2023-01-08T12:50:25.090Z,9.02
2023-01-08T12:53:00.119Z,9.57
2023-01-08T12:55:46.201Z,9.77
2023-01-08T12:58:50.741Z,10.68
2023-01-08T13:01:44.581Z,10.93
2023-01-08T13:04:12.676Z,10.30
2023-01-08T13:07:03.064Z,10.38
2023-01-08T13:09:34.797Z,10.77
2023-01-08T13:12:02.012Z,10.88
2023-01-08T13:14:41.281Z,10.43
2023-01-08T13:17:19.643Z,10.70
2023-01-08T13:19:59.669Z,10.93
2023-01-08T13:22:33.389Z,10.38
2023-01-08T13:25:15.597Z,10.68
2023-01-08T13:27:43.284Z,10.95
2023-01-08T13:30:43.032Z,10.68
2023-01-08T13:33:34.639Z,10.30
2023-01-08T13:36:17.661Z,10.40
2023-01-08T13:38:49.922Z,11.30
2023-01-08T13:41:41.447Z,9.77
2023-01-08T13:44:41.084Z,10.52
2023-01-08T13:47:21.188Z,10.63
2023-01-08T13:49:53.268Z,11.35
2023-01-08T13:52:57.020Z,11.55
2023-01-08T13:55:41.658Z,11.95
2023-01-08T13:58:18.509Z,11.20
2023-01-08T14:00:49.550Z,11.00
2023-01-08T14:03:27.114Z,13.15
2023-01-08T14:06:21.736Z,12.48
2023-01-08T14:09:05.146Z,12.43
2023-01-08T14:11:46.690Z,11.65
2023-01-08T14:14:17.687Z,11.55
2023-01-08T14:16:48.442Z,11.73
2023-01-08T14:19:22.977Z,12.05
2023-01-08T14:21:55.781Z,11.18
2023-01-08T14:24:25.761Z,11.10
2023-01-08T14:26:57.096Z,11.23
2023-01-08T14:29:30.842Z,12.32
2023-01-08T14:32:00.715Z,11.05
2023-01-08T14:34:31.941Z,12.18
2023-01-08T14:36:59.115Z,11.25
2023-01-08T14:39:40.173Z,11.35
2023-01-08T14:42:51.272Z,11.60
2023-01-08T14:45:27.811Z,12.85
2023-01-08T14:48:01.641Z,12.60
2023-01-08T14:50:36.253Z,11.30
2023-01-08T14:53:28.945Z,13.75
2023-01-08T14:55:57.895Z,13.45
2023-01-08T14:58:29.462Z,12.77
2023-01-08T15:01:09.553Z,12.25
2023-01-08T15:03:40.659Z,14.27
2023-01-08T15:06:11.641Z,13.70
2023-01-08T15:08:44.305Z,13.82
2023-01-08T15:11:23.833Z,13.13
2023-01-08T15:13:53.599Z,12.82
2023-01-08T15:16:42.617Z,13.60
2023-01-08T15:19:14.415Z,12.80
2023-01-08T15:21:50.333Z,14.02
2023-01-08T15:24:41.679Z,12.95
2023-01-08T15:27:18.785Z,12.75
2023-01-08T15:29:53.006Z,14.40
2023-01-08T15:32:24.041Z,12.60
2023-01-08T15:34:51.077Z,14.23
2023-01-08T15:37:17.954Z,13.35
2023-01-08T15:39:45.052Z,13.10
2023-01-08T15:42:46.029Z,13.48
2023-01-08T15:45:25.110Z,13.35
2023-01-08T15:47:55.571Z,12.70
2023-01-08T15:50:24.131Z,13.80
2023-01-08T15:52:51.223Z,13.35
2023-01-08T15:55:21.823Z,14.57
2023-01-08T15:57:49.586Z,14.02
2023-01-08T16:00:19.249Z,14.70
2023-01-08T16:02:49.961Z,15.52
2023-01-08T16:05:20.118Z,16.50
2023-01-08T16:07:47.637Z,16.83
2023-01-08T16:10:16.465Z,16.60
2023-01-08T16:12:43.653Z,16.40
2023-01-08T16:15:13.284Z,15.38
2023-01-08T16:17:41.277Z,15.65
2023-01-08T16:20:12.342Z,13.50
2023-01-08T16:22:39.719Z,14.38
2023-01-08T16:25:09.319Z,15.02
2023-01-08T16:27:38.476Z,17.02
2023-01-08T16:30:11.614Z,15.57
2023-01-08T16:32:38.625Z,17.15
2023-01-08T16:35:06.336Z,17.73
2023-01-08T16:37:33.360Z,16.55
2023-01-08T16:40:00.314Z,16.23
2023-01-08T16:42:27.438Z,15.90
2023-01-08T16:44:54.408Z,15.23
2023-01-08T16:47:21.406Z,14.00
2023-01-08T16:49:50.329Z,14.80
2023-01-08T16:52:18.183Z,13.55
2023-01-08T16:54:46.412Z,13.40
2023-01-08T16:57:13.610Z,13.02
2023-01-08T16:59:40.548Z,13.98
2023-01-08T17:02:09.010Z,13.32
2023-01-08T17:04:36.171Z,14.52
2023-01-08T17:07:03.384Z,13.32
2023-01-08T17:09:30.362Z,13.10
2023-01-08T17:11:57.467Z,13.05
2023-01-08T17:14:24.879Z,13.43
2023-01-08T17:16:51.828Z,13.32
2023-01-08T17:19:18.801Z,13.35
2023-01-08T17:21:45.985Z,13.95
2023-01-08T17:24:13.111Z,13.38
2023-01-08T17:26:40.031Z,12.68
2023-01-08T17:29:07.278Z,13.10
2023-01-08T17:31:39.821Z,14.40
2023-01-08T17:34:12.533Z,13.65
2023-01-08T17:36:39.685Z,14.18
2023-01-08T17:39:06.802Z,14.40
2023-01-08T17:41:54.724Z,14.55
2023-01-08T17:44:22.568Z,13.57
2023-01-08T17:46:49.776Z,14.45
2023-01-08T17:49:17.664Z,14.52
2023-01-08T17:51:45.990Z,14.00
2023-01-08T17:54:15.579Z,14.55
2023-01-08T17:56:43.895Z,15.02
2023-01-08T17:59:15.990Z,15.13
2023-01-08T18:01:45.171Z,14.85
2023-01-08T18:04:14.499Z,14.98
2023-01-08T18:06:42.860Z,15.82
2023-01-08T18:09:12.026Z,15.98
2023-01-08T18:11:41.051Z,16.80
2023-01-08T18:14:11.328Z,15.63
2023-01-08T18:16:38.338Z,16.42
2023-01-08T18:19:05.728Z,16.40
2023-01-08T18:21:32.759Z,17.17
2023-01-08T18:23:59.723Z,17.20
2023-01-08T18:26:26.712Z,17.25
2023-01-08T18:28:53.797Z,17.55
2023-01-08T18:31:22.105Z,15.93
2023-01-08T18:33:53.000Z,17.55
2023-01-08T18:36:20.452Z,17.17
2023-01-08T18:38:48.780Z,17.50
2023-01-08T18:41:38.184Z,17.50
2023-01-08T18:44:07.840Z,17.88
2023-01-08T18:46:36.094Z,17.63
2023-01-08T18:49:03.356Z,17.52
2023-01-08T18:51:30.901Z,18.02
2023-01-08T18:53:58.433Z,16.45
2023-01-08T18:56:33.288Z,18.10
2023-01-08T18:59:01.864Z,18.40
2023-01-08T19:01:30.058Z,18.92
2023-01-08T19:03:57.342Z,17.58
2023-01-08T19:06:25.643Z,18.60
2023-01-08T19:08:54.453Z,17.25
2023-01-08T19:11:22.848Z,19.08
2023-01-08T19:13:50.709Z,18.60
2023-01-08T19:16:18.739Z,17.77
2023-01-08T19:18:45.970Z,18.55
2023-01-08T19:21:14.970Z,18.30
2023-01-08T19:23:42.519Z,18.73
2023-01-08T19:26:10.298Z,18.35
2023-01-08T19:28:37.967Z,18.52
2023-01-08T19:31:06.228Z,18.23
2023-01-08T19:33:33.852Z,18.67
2023-01-08T19:36:08.682Z,18.42
2023-01-08T19:38:36.452Z,18.20
2023-01-08T19:41:04.429Z,18.98
2023-01-08T19:43:44.410Z,18.73
2023-01-08T19:46:15.351Z,18.90
2023-01-08T19:48:44.235Z,18.83
2023-01-08T19:51:13.879Z,18.63
2023-01-08T19:53:41.590Z,18.10
2023-01-08T19:56:13.227Z,17.65
2023-01-08T19:58:41.505Z,18.00
2023-01-08T20:01:16.342Z,17.70
2023-01-08T20:03:44.747Z,15.60
2023-01-08T20:06:26.425Z,16.70
2023-01-08T20:08:57.997Z,16.65
2023-01-08T20:11:27.482Z,16.25
2023-01-08T20:13:56.990Z,15.95
2023-01-08T20:16:24.973Z,15.70
2023-01-08T20:18:59.627Z,15.50
2023-01-08T20:21:27.657Z,16.08
2023-01-08T20:23:59.585Z,15.07
2023-01-08T20:26:29.319Z,15.73
2023-01-08T20:29:02.328Z,16.67
2023-01-08T20:31:33.130Z,14.38
2023-01-08T20:34:05.252Z,15.05
2023-01-08T20:36:36.143Z,15.15
2023-01-08T20:39:12.739Z,15.30
2023-01-08T20:41:43.534Z,15.80
2023-01-08T20:44:17.836Z,16.08
2023-01-08T20:46:45.073Z,15.27
2023-01-08T20:49:16.625Z,15.35
2023-01-08T20:51:58.180Z,16.13
2023-01-08T20:54:26.811Z,15.65
2023-01-08T20:56:57.057Z,16.02
2023-01-08T20:59:25.406Z,15.02
2023-01-08T21:01:53.452Z,15.73
2023-01-08T21:04:21.683Z,16.98
2023-01-08T21:06:49.157Z,14.93
2023-01-08T21:09:17.926Z,16.42
2023-01-08T21:11:45.259Z,16.40
2023-01-08T21:14:12.965Z,16.67
2023-01-08T21:16:40.732Z,16.25
2023-01-08T21:19:10.393Z,16.25
2023-01-08T21:21:40.694Z,15.10
2023-01-08T21:24:11.765Z,15.43
2023-01-08T21:26:39.838Z,15.43
2023-01-08T21:29:09.248Z,15.68
2023-01-08T21:31:38.328Z,14.80
2023-01-08T21:34:08.132Z,16.10
2023-01-08T21:36:35.217Z,15.98
2023-01-08T21:39:02.676Z,16.25
2023-01-08T21:41:49.523Z,16.00
2023-01-08T21:44:41.981Z,16.45
2023-01-08T21:47:18.701Z,16.23
2023-01-08T21:49:46.603Z,16.45
2023-01-08T21:52:32.860Z,16.02
2023-01-08T21:54:59.953Z,16.55
2023-01-08T21:57:28.144Z,15.25
2023-01-08T21:59:55.932Z,16.30
2023-01-08T22:02:24.388Z,15.98
2023-01-08T22:04:56.005Z,16.35
2023-01-08T22:07:24.596Z,16.45
2023-01-08T22:09:51.633Z,15.90
2023-01-08T22:12:18.727Z,16.02
2023-01-08T22:14:45.644Z,15.20
2023-01-08T22:17:12.737Z,15.50
2023-01-08T22:19:40.724Z,16.00
2023-01-08T22:22:10.424Z,14.55
2023-01-08T22:24:39.538Z,14.95
2023-01-08T22:27:08.254Z,14.32
2023-01-08T22:29:36.818Z,15.30
2023-01-08T22:32:05.097Z,15.38
2023-01-08T22:34:34.632Z,14.70
2023-01-08T22:37:02.062Z,14.52
2023-01-08T22:39:29.064Z,14.63
2023-01-08T22:41:56.045Z,14.27
2023-01-08T22:44:23.176Z,15.20
2023-01-08T22:46:50.141Z,15.52
2023-01-08T22:49:17.064Z,15.73
2023-01-08T22:51:44.345Z,14.95
2023-01-08T22:54:17.125Z,15.40
2023-01-08T22:56:44.247Z,15.30
2023-01-08T22:59:11.213Z,13.63
2023-01-08T23:01:38.217Z,14.27
2023-01-08T23:04:05.265Z,15.20
2023-01-08T23:06:32.338Z,15.18
2023-01-08T23:08:59.477Z,13.98
2023-01-08T23:11:27.339Z,15.30
2023-01-08T23:13:55.092Z,14.65
2023-01-08T23:16:25.300Z,15.73
2023-01-08T23:18:54.276Z,14.75
2023-01-08T23:21:24.121Z,14.10
2023-01-08T23:23:51.980Z,14.93
2023-01-08T23:26:29.806Z,13.93
2023-01-08T23:28:58.086Z,14.93
2023-01-08T23:31:30.510Z,15.23
2023-01-08T23:33:58.314Z,13.75
2023-01-08T23:36:26.225Z,15.32
2023-01-08T23:38:56.108Z,15.55
2023-01-08T23:41:33.007Z,14.65
2023-01-08T23:44:08.808Z,15.32
2023-01-08T23:46:36.118Z,14.53
2023-01-08T23:49:04.234Z,13.40
2023-01-08T23:51:31.187Z,13.43
2023-01-08T23:53:58.367Z,13.70
2023-01-08T23:56:25.564Z,13.50
2023-01-08T23:58:53.834Z,13.27
